Time;durP1;ratioP1;P1;durP2;ratioP2;P2;SDS_P1;SDS_P2;PMS_P1;PMS_P2;Temp;Humidity;BMP_temperature;BMP_pressure;BME280_temperature;BME280_humidity;BME280_pressure;Samples;Min_cycle;Max_cycle;Signal;HPM_P1;HPM_P2
2022/11/18 00:00:47;;;;;;;8.77;3.38;;;11.00;99.90;;;;;;5064384;28;20033;-72
2022/11/18 00:03:12;;;;;;;10.45;3.10;;;11.00;99.90;;;;;;5065912;28;20036;-72
2022/11/18 00:05:38;;;;;;;13.80;3.70;;;10.90;99.90;;;;;;5065622;28;20508;-72
2022/11/18 00:08:04;;;;;;;7.05;3.05;;;10.90;99.90;;;;;;5074560;28;20031;-72
2022/11/18 00:10:30;;;;;;;10.70;3.40;;;10.90;99.90;;;;;;5069890;28;20033;-72
2022/11/18 00:15:40;;;;;;;6.13;3.05;;;10.90;99.90;;;;;;5068755;28;20020;-73
2022/11/18 00:18:06;;;;;;;7.18;2.63;;;10.90;99.90;;;;;;5067322;28;20469;-72
2022/11/18 00:20:34;;;;;;;5.25;2.90;;;10.90;99.90;;;;;;5072549;28;20021;-72
2022/11/18 00:22:59;;;;;;;13.20;3.83;;;10.80;99.90;;;;;;5069865;28;20031;-73
2022/11/18 00:25:26;;;;;;;7.22;3.10;;;10.90;99.90;;;;;;5067530;28;20068;-72
2022/11/18 00:27:53;;;;;;;8.13;3.17;;;10.90;99.90;;;;;;5076329;28;20028;-73
2022/11/18 00:30:19;;;;;;;14.70;2.88;;;10.90;99.90;;;;;;5066825;28;20074;-72
2022/11/18 00:32:45;;;;;;;11.75;3.53;;;10.90;99.90;;;;;;5075447;28;20025;-73
2022/11/18 00:35:11;;;;;;;7.40;3.25;;;10.90;99.90;;;;;;5072195;28;20497;-72
2022/11/18 00:37:36;;;;;;;9.50;3.78;;;10.80;99.90;;;;;;5069005;28;20060;-72
2022/11/18 00:40:02;;;;;;;12.23;3.33;;;10.70;99.90;;;;;;5064077;28;20088;-74
2022/11/18 00:43:01;;;;;;;9.45;2.97;;;10.70;99.90;;;;;;5072923;28;20020;-73
2022/11/18 00:45:21;;;;;;;8.50;3.30;;;10.70;99.90;;;;;;5062493;28;20040;-73
2022/11/18 00:47:47;;;;;;;6.13;2.72;;;10.70;99.90;;;;;;5067882;28;20534;-72
2022/11/18 00:50:13;;;;;;;11.55;3.38;;;10.70;99.90;;;;;;5072794;28;20510;-72
2022/11/18 00:52:39;;;;;;;9.63;3.45;;;10.80;99.90;;;;;;5071924;28;20029;-72
2022/11/18 00:55:06;;;;;;;13.57;3.00;;;10.70;99.90;;;;;;5066054;28;20035;-72
2022/11/18 00:57:31;;;;;;;14.55;3.00;;;10.70;99.90;;;;;;5063942;28;20059;-72
2022/11/18 00:59:57;;;;;;;10.50;2.80;;;10.70;99.90;;;;;;5063541;28;20024;-73
2022/11/18 01:02:23;;;;;;;7.22;2.75;;;10.70;99.90;;;;;;5072079;28;20108;-72
2022/11/18 01:04:49;;;;;;;12.75;3.05;;;10.70;99.90;;;;;;5069943;28;20491;-72
2022/11/18 01:07:14;;;;;;;11.73;2.95;;;10.70;99.90;;;;;;5073709;28;20035;-73
2022/11/18 01:09:40;;;;;;;7.30;2.60;;;10.70;99.90;;;;;;5069229;28;20024;-73
2022/11/18 01:14:52;;;;;;;8.88;3.28;;;10.70;99.90;;;;;;5072917;28;20042;-73
2022/11/18 01:17:18;;;;;;;7.03;2.70;;;10.70;99.90;;;;;;5077826;28;20446;-72
2022/11/18 01:19:44;;;;;;;5.40;3.10;;;10.60;99.90;;;;;;5077046;28;20020;-72
2022/11/18 01:22:09;;;;;;;9.40;3.40;;;10.70;99.90;;;;;;5074782;28;20046;-72
2022/11/18 01:24:35;;;;;;;14.13;3.45;;;10.70;99.90;;;;;;5074620;28;20048;-72
2022/11/18 01:27:01;;;;;;;10.90;3.25;;;10.60;99.90;;;;;;5065303;28;20037;-72
2022/11/18 01:29:27;;;;;;;10.05;3.25;;;10.60;99.90;;;;;;5075761;28;20021;-72
2022/11/18 01:31:53;;;;;;;14.98;2.88;;;10.60;99.90;;;;;;5064877;28;20506;-72
2022/11/18 01:34:19;;;;;;;8.45;2.75;;;10.60;99.90;;;;;;5078325;28;20023;-72
2022/11/18 01:36:44;;;;;;;10.13;3.38;;;10.60;99.90;;;;;;5070023;28;20519;-72
2022/11/18 01:39:10;;;;;;;6.32;3.22;;;10.70;99.90;;;;;;5069502;28;20035;-73
2022/11/18 01:41:36;;;;;;;9.07;3.08;;;10.60;99.90;;;;;;5065094;28;20048;-73
2022/11/18 01:44:05;;;;;;;8.68;3.10;;;10.60;99.90;;;;;;5061980;28;20032;-72
2022/11/18 01:46:32;;;;;;;7.55;3.35;;;10.60;99.90;;;;;;5064756;28;20553;-72
2022/11/18 01:49:13;;;;;;;6.05;2.78;;;10.60;99.90;;;;;;5062009;28;20032;-72
2022/11/18 01:51:46;;;;;;;;;;;10.50;99.90;;;;;;5071402;28;20044;-72
2022/11/18 01:54:20;;;;;;;13.02;3.22;;;10.50;99.90;;;;;;5059917;28;19908;-73
2022/11/18 01:56:53;;;;;;;5.70;2.53;;;10.50;99.90;;;;;;5070509;28;20469;-72
2022/11/18 01:59:24;;;;;;;13.45;2.78;;;10.40;99.90;;;;;;5071429;28;20071;-72
2022/11/18 02:01:50;;;;;;;14.00;2.78;;;10.40;99.90;;;;;;5069907;28;20032;-73
2022/11/18 02:04:16;;;;;;;8.25;3.17;;;10.40;99.90;;;;;;5083430;28;20504;-72
2022/11/18 02:06:44;;;;;;;9.18;3.47;;;10.40;99.90;;;;;;5070314;28;20077;-72
2022/11/18 02:09:13;;;;;;;9.07;2.60;;;10.40;99.90;;;;;;5072755;28;20084;-73
2022/11/18 02:11:53;;;;;;;9.82;3.65;;;10.40;99.90;;;;;;5068767;28;20393;-72
2022/11/18 02:14:32;;;;;;;6.53;2.88;;;10.40;99.90;;;;;;5063363;28;20070;-72
2022/11/18 02:17:10;;;;;;;7.47;2.72;;;10.40;99.90;;;;;;5066022;28;20084;-72
2022/11/18 02:19:45;;;;;;;6.60;2.65;;;10.40;99.90;;;;;;5069791;28;20074;-73
2022/11/18 02:22:49;;;;;;;7.97;2.75;;;10.30;99.90;;;;;;5070179;28;20057;-73
2022/11/18 02:25:23;;;;;;;8.40;3.10;;;10.40;99.90;;;;;;5069627;28;20476;-73
2022/11/18 02:28:10;;;;;;;6.93;2.92;;;10.40;99.90;;;;;;5073463;28;20028;-72
2022/11/18 02:31:11;;;;;;;7.40;2.85;;;10.40;99.90;;;;;;5071055;28;20037;-72
2022/11/18 02:34:00;;;;;;;5.50;2.97;;;10.30;99.90;;;;;;5066988;28;20057;-72
2022/11/18 02:36:54;;;;;;;7.97;2.95;;;10.30;99.90;;;;;;5065498;28;20024;-72
2022/11/18 02:39:28;;;;;;;11.93;3.15;;;10.30;99.90;;;;;;5067875;28;20033;-73
2022/11/18 02:41:56;;;;;;;9.80;2.88;;;10.30;99.90;;;;;;5067218;28;20476;-73
2022/11/18 02:44:25;;;;;;;16.95;3.67;;;10.40;99.90;;;;;;5069266;28;20107;-72
2022/11/18 02:46:56;;;;;;;9.60;2.95;;;10.40;99.90;;;;;;5064267;28;20059;-72
2022/11/18 02:49:38;;;;;;;14.23;3.17;;;10.40;99.90;;;;;;5070156;28;20100;-72
2022/11/18 02:52:05;;;;;;;10.13;3.85;;;10.40;99.90;;;;;;5081412;28;20047;-72
2022/11/18 02:54:35;;;;;;;14.38;3.45;;;10.40;99.90;;;;;;5067144;28;20436;-72
2022/11/18 02:57:02;;;;;;;8.30;2.83;;;10.40;99.90;;;;;;5059432;28;20046;-73
2022/11/18 02:59:28;;;;;;;6.95;3.28;;;10.30;99.90;;;;;;5069257;28;20082;-73
2022/11/18 03:01:54;;;;;;;12.77;3.20;;;10.30;99.90;;;;;;5068882;28;20033;-73
2022/11/18 03:04:22;;;;;;;8.20;2.70;;;10.30;99.90;;;;;;5068588;28;20029;-72
2022/11/18 03:06:53;;;;;;;9.52;3.10;;;10.20;99.90;;;;;;5071058;28;20024;-72
2022/11/18 03:09:32;;;;;;;6.68;3.00;;;10.20;99.90;;;;;;5057771;28;20025;-72
2022/11/18 03:12:22;;;;;;;13.05;2.72;;;10.10;99.90;;;;;;5069748;28;20037;-72
2022/11/18 03:15:16;;;;;;;12.45;3.45;;;10.10;99.90;;;;;;5074307;28;20016;-72
2022/11/18 03:17:47;;;;;;;8.38;2.78;;;10.10;99.90;;;;;;5067333;28;20028;-72
2022/11/18 03:20:28;;;;;;;10.27;4.05;;;10.00;99.90;;;;;;5064934;28;20028;-72
2022/11/18 03:23:03;;;;;;;15.80;3.78;;;9.90;99.90;;;;;;5066150;28;20104;-72
2022/11/18 03:25:42;;;;;;;12.13;3.70;;;9.90;99.90;;;;;;5063614;28;20049;-72
2022/11/18 03:28:14;;;;;;;9.30;4.20;;;9.90;99.90;;;;;;5068816;28;20025;-72
2022/11/18 03:30:46;;;;;;;8.68;3.50;;;9.90;99.90;;;;;;5067106;28;20036;-72
2022/11/18 03:33:19;;;;;;;10.55;3.22;;;9.80;99.90;;;;;;5069849;28;20048;-72
2022/11/18 03:35:48;;;;;;;9.55;3.15;;;9.80;99.90;;;;;;5063596;28;20021;-72
2022/11/18 03:38:22;;;;;;;8.63;3.10;;;9.80;99.90;;;;;;5069627;28;20024;-72
2022/11/18 03:40:54;;;;;;;7.75;2.72;;;9.70;99.90;;;;;;5061645;28;20132;-72
2022/11/18 03:43:28;;;;;;;6.10;2.60;;;9.70;99.90;;;;;;5068375;28;20032;-71
2022/11/18 03:46:03;;;;;;;11.15;3.38;;;9.70;99.90;;;;;;5067210;28;20032;-71
2022/11/18 03:48:35;;;;;;;11.57;3.47;;;9.70;99.90;;;;;;5067956;28;20048;-71
2022/11/18 03:51:07;;;;;;;15.30;3.17;;;9.70;99.90;;;;;;5065001;28;20102;-72
2022/11/18 03:53:38;;;;;;;12.15;3.38;;;9.70;99.90;;;;;;5071884;28;20392;-71
2022/11/18 03:56:18;;;;;;;10.40;3.78;;;9.60;99.90;;;;;;5067823;28;20408;-72
2022/11/18 03:59:25;;;;;;;8.25;3.13;;;9.60;99.90;;;;;;5067362;28;20039;-72
2022/11/18 04:02:04;;;;;;;9.30;3.38;;;9.60;99.90;;;;;;5071036;28;20124;-72
2022/11/18 04:04:30;;;;;;;10.80;3.00;;;9.60;99.90;;;;;;5065491;28;20568;-72
2022/11/18 04:07:19;;;;;;;6.05;2.90;;;9.60;99.90;;;;;;5067334;28;20048;-72
2022/11/18 04:09:55;;;;;;;6.78;2.97;;;9.60;99.90;;;;;;5063566;28;20028;-71
2022/11/18 04:12:25;;;;;;;5.93;2.65;;;9.60;99.90;;;;;;5077152;28;20025;-71
2022/11/18 04:14:54;;;;;;;8.67;3.77;;;9.60;99.90;;;;;;5075202;28;20028;-71
2022/11/18 04:17:22;;;;;;;17.30;2.90;;;9.60;99.90;;;;;;5069399;28;20032;-72
2022/11/18 04:19:48;;;;;;;10.85;3.33;;;9.60;99.90;;;;;;5074034;28;20065;-72
2022/11/18 04:22:14;;;;;;;13.65;3.50;;;9.50;99.90;;;;;;5071051;28;20035;-72
2022/11/18 04:24:40;;;;;;;14.70;4.07;;;9.60;99.90;;;;;;5071197;28;20504;-72
2022/11/18 04:27:07;;;;;;;7.43;2.90;;;9.50;99.90;;;;;;5072239;28;20057;-72
2022/11/18 04:29:33;;;;;;;6.05;3.00;;;9.50;99.90;;;;;;5070236;28;20094;-72
2022/11/18 04:32:00;;;;;;;10.88;3.42;;;9.50;99.90;;;;;;5070805;28;20363;-73
2022/11/18 04:34:27;;;;;;;19.30;3.25;;;9.50;99.90;;;;;;5069602;28;20089;-71
2022/11/18 04:36:53;;;;;;;6.55;3.00;;;9.40;99.90;;;;;;5066948;28;20443;-73
2022/11/18 04:39:19;;;;;;;6.68;3.10;;;9.40;99.90;;;;;;5066213;28;20120;-72
2022/11/18 04:41:54;;;;;;;7.95;2.83;;;9.40;99.90;;;;;;5070804;28;20044;-72
2022/11/18 04:44:24;;;;;;;9.13;2.67;;;9.40;99.90;;;;;;5072625;28;20037;-72
2022/11/18 04:46:51;;;;;;;7.65;2.42;;;9.40;99.90;;;;;;5070765;28;20059;-72
2022/11/18 04:49:17;;;;;;;5.68;3.03;;;9.40;99.90;;;;;;5071424;28;20039;-72
2022/11/18 04:51:45;;;;;;;11.95;3.65;;;9.40;99.90;;;;;;5068662;28;20005;-72
2022/11/18 04:54:11;;;;;;;6.20;3.05;;;9.40;99.90;;;;;;5071412;28;20064;-72
2022/11/18 04:56:38;;;;;;;4.93;2.80;;;9.40;99.90;;;;;;5070206;28;20017;-72
2022/11/18 04:59:04;;;;;;;7.18;2.42;;;9.30;99.90;;;;;;5072940;28;20029;-72
2022/11/18 05:01:31;;;;;;;7.07;2.70;;;9.40;99.90;;;;;;5064906;28;20064;-72
2022/11/18 05:04:00;;;;;;;5.30;2.72;;;9.40;99.90;;;;;;5068625;28;20017;-73
2022/11/18 05:06:26;;;;;;;7.57;3.30;;;9.40;99.90;;;;;;5066541;28;20551;-73
2022/11/18 05:08:52;;;;;;;11.93;3.15;;;9.50;99.90;;;;;;5074233;28;20110;-72
2022/11/18 05:14:02;;;;;;;4.10;2.47;;;9.50;99.90;;;;;;5063772;28;20026;-73
2022/11/18 05:16:28;;;;;;;12.48;3.13;;;9.60;99.90;;;;;;5070800;28;20021;-73
2022/11/18 05:18:54;;;;;;;13.25;3.10;;;9.60;99.90;;;;;;5061689;28;20033;-72
2022/11/18 05:21:20;;;;;;;3.97;2.40;;;9.60;99.90;;;;;;5068622;28;20036;-72
2022/11/18 05:23:46;;;;;;;7.45;2.90;;;9.60;99.90;;;;;;5077930;28;20071;-72
2022/11/18 05:26:12;;;;;;;6.55;2.60;;;9.50;99.90;;;;;;5074445;28;20092;-72
2022/11/18 05:28:38;;;;;;;6.00;2.60;;;9.50;99.90;;;;;;5069322;28;20100;-72
2022/11/18 05:31:08;;;;;;;6.35;2.50;;;9.50;99.90;;;;;;5071917;28;20393;-72
2022/11/18 05:33:34;;;;;;;7.55;2.60;;;9.50;99.90;;;;;;5072164;28;20028;-72
2022/11/18 05:36:06;;;;;;;8.27;3.45;;;9.60;99.90;;;;;;5070835;28;20025;-72
2022/11/18 05:38:32;;;;;;;8.05;2.95;;;9.60;99.90;;;;;;5073934;28;20024;-73
2022/11/18 05:40:58;;;;;;;10.35;2.53;;;9.70;99.90;;;;;;5069981;28;20029;-72
2022/11/18 05:43:24;;;;;;;12.68;4.03;;;9.70;99.90;;;;;;5065827;28;20028;-72
2022/11/18 05:45:51;;;;;;;8.40;2.50;;;9.70;99.90;;;;;;5065373;28;20025;-72
2022/11/18 05:48:18;;;;;;;15.05;3.60;;;9.70;99.90;;;;;;5064293;28;20477;-72
2022/11/18 05:50:47;;;;;;;9.07;2.70;;;9.70;99.90;;;;;;5066594;28;20021;-72
2022/11/18 05:53:14;;;;;;;13.80;3.22;;;9.60;99.90;;;;;;5071945;28;20477;-73
2022/11/18 05:56:13;;;;;;;6.72;2.63;;;9.60;99.90;;;;;;5068975;28;20065;-72
2022/11/18 05:58:39;;;;;;;8.18;2.80;;;9.50;99.90;;;;;;5071912;28;20111;-72
2022/11/18 06:01:07;;;;;;;5.90;2.63;;;9.50;99.90;;;;;;5064957;28;20059;-73
2022/11/18 06:03:37;;;;;;;18.02;3.83;;;9.50;99.90;;;;;;5088542;28;20112;-73
2022/11/18 06:06:06;;;;;;;4.93;2.90;;;9.50;99.90;;;;;;5066396;28;20032;-73
2022/11/18 06:09:10;;;;;;;10.38;2.88;;;9.40;99.90;;;;;;5075866;28;20029;-73
2022/11/18 06:11:44;;;;;;;9.73;2.88;;;9.40;99.90;;;;;;5069871;28;20063;-73
2022/11/18 06:14:26;;;;;;;5.43;2.58;;;9.40;99.90;;;;;;5072401;28;20036;-72
2022/11/18 06:16:58;;;;;;;9.18;3.28;;;9.40;99.90;;;;;;5066709;28;20027;-73
2022/11/18 06:19:25;;;;;;;9.45;2.80;;;9.40;99.90;;;;;;5077358;28;20028;-73
2022/11/18 06:21:51;;;;;;;7.90;3.25;;;9.30;99.90;;;;;;5068769;28;20044;-73
2022/11/18 06:24:17;;;;;;;11.10;3.50;;;9.30;99.90;;;;;;5075756;28;20048;-73
2022/11/18 06:26:43;;;;;;;10.45;5.20;;;9.30;99.90;;;;;;5067275;28;20095;-73
2022/11/18 06:29:12;;;;;;;11.50;3.20;;;9.30;99.90;;;;;;5066161;28;20028;-73
2022/11/18 06:31:37;;;;;;;7.93;2.90;;;9.30;99.90;;;;;;5058890;28;20025;-73
2022/11/18 06:34:03;;;;;;;7.38;2.80;;;9.40;99.90;;;;;;5074392;28;20028;-74
2022/11/18 06:36:29;;;;;;;7.43;3.05;;;9.40;99.90;;;;;;5067079;28;20056;-74
2022/11/18 06:38:55;;;;;;;6.03;2.78;;;9.40;99.90;;;;;;5068536;28;20055;-74
2022/11/18 06:41:21;;;;;;;5.13;3.15;;;9.50;99.90;;;;;;5063763;28;20488;-75
2022/11/18 06:43:47;;;;;;;9.23;2.97;;;9.50;99.90;;;;;;5058547;28;20029;-74
2022/11/18 06:49:01;;;;;;;5.68;2.80;;;9.60;99.90;;;;;;5061535;28;20024;-74
2022/11/18 06:51:28;;;;;;;8.20;2.92;;;9.60;99.90;;;;;;5068167;28;20025;-74
2022/11/18 06:53:54;;;;;;;6.85;2.50;;;9.60;99.90;;;;;;5066065;28;20016;-73
2022/11/18 06:56:20;;;;;;;11.73;3.22;;;9.60;99.90;;;;;;5064380;28;20029;-74
2022/11/18 06:58:46;;;;;;;7.47;2.70;;;9.60;99.90;;;;;;5065257;28;20020;-74
2022/11/18 07:01:21;;;;;;;4.60;2.72;;;9.60;99.90;;;;;;5058449;28;20040;-74
2022/11/18 07:03:47;;;;;;;5.55;3.10;;;9.60;99.90;;;;;;5060620;28;20027;-74
2022/11/18 07:06:16;;;;;;;4.85;3.17;;;9.60;99.90;;;;;;5063638;28;20503;-74
2022/11/18 07:08:42;;;;;;;6.05;2.92;;;9.60;99.90;;;;;;5074090;28;20028;-73
2022/11/18 07:11:11;;;;;;;10.23;2.85;;;9.60;99.90;;;;;;5074015;28;20029;-74
2022/11/18 07:13:37;;;;;;;9.32;3.30;;;9.60;99.90;;;;;;5060513;28;20013;-74
2022/11/18 07:16:05;;;;;;;6.70;3.53;;;9.50;99.90;;;;;;5065155;28;20039;-74
2022/11/18 07:18:33;;;;;;;9.02;3.45;;;9.50;99.90;;;;;;5068505;28;20020;-74
2022/11/18 07:21:07;;;;;;;6.95;2.88;;;9.50;99.90;;;;;;5059653;28;20110;-73
2022/11/18 07:23:33;;;;;;;8.23;3.47;;;9.50;99.90;;;;;;5071271;28;20025;-74
2022/11/18 07:26:00;;;;;;;6.18;2.88;;;9.50;99.90;;;;;;5067681;28;20040;-73
2022/11/18 07:28:27;;;;;;;5.88;3.00;;;9.40;99.90;;;;;;5072219;28;20017;-74
2022/11/18 07:31:00;;;;;;;7.18;2.90;;;9.40;99.90;;;;;;5064525;28;20104;-73
2022/11/18 07:33:26;;;;;;;10.52;3.00;;;9.40;99.90;;;;;;5065612;28;20085;-74
2022/11/18 07:35:52;;;;;;;9.27;3.03;;;9.50;99.90;;;;;;5076961;28;20024;-74
2022/11/18 07:38:18;;;;;;;10.48;2.88;;;9.50;99.90;;;;;;5074791;28;20457;-74
2022/11/18 07:40:43;;;;;;;10.25;3.00;;;9.60;99.90;;;;;;5072057;28;20025;-75
2022/11/18 07:43:09;;;;;;;7.53;3.50;;;9.70;99.90;;;;;;5074236;28;20025;-74
2022/11/18 07:45:35;;;;;;;6.50;3.22;;;9.70;99.90;;;;;;5071143;28;20059;-74
2022/11/18 07:48:01;;;;;;;10.68;3.72;;;9.80;99.90;;;;;;5069509;28;20100;-74
2022/11/18 07:50:27;;;;;;;6.07;2.65;;;9.80;99.90;;;;;;5068602;28;20481;-75
2022/11/18 07:52:56;;;;;;;6.93;2.95;;;9.80;99.90;;;;;;5072061;28;20052;-75
2022/11/18 07:55:23;;;;;;;11.18;3.20;;;9.90;99.90;;;;;;5071920;28;20029;-74
2022/11/18 07:57:49;;;;;;;10.45;3.33;;;9.90;99.90;;;;;;5075215;28;20024;-74
2022/11/18 08:00:15;;;;;;;4.45;2.78;;;10.00;99.90;;;;;;5070814;28;20025;-76
2022/11/18 08:02:42;;;;;;;7.50;2.80;;;10.00;99.90;;;;;;5073059;28;20373;-74
2022/11/18 08:05:09;;;;;;;5.88;2.58;;;10.00;99.90;;;;;;5076627;28;20035;-74
2022/11/18 08:07:35;;;;;;;6.13;2.97;;;10.00;99.90;;;;;;5069537;28;20033;-74
2022/11/18 08:10:02;;;;;;;6.07;2.90;;;10.00;99.90;;;;;;5065100;28;20029;-74
2022/11/18 08:12:31;;;;;;;8.68;2.95;;;10.00;99.90;;;;;;5076005;28;20020;-74
2022/11/18 08:14:57;;;;;;;8.48;3.00;;;10.00;99.90;;;;;;5074278;28;20031;-75
2022/11/18 08:17:23;;;;;;;4.45;2.97;;;10.00;99.90;;;;;;5069109;28;20496;-74
2022/11/18 08:19:48;;;;;;;8.65;3.00;;;10.10;99.90;;;;;;5077407;28;20029;-75
2022/11/18 08:22:17;;;;;;;9.85;3.50;;;10.10;99.90;;;;;;5068530;28;20033;-74
2022/11/18 08:24:44;;;;;;;6.97;3.53;;;10.10;99.90;;;;;;5066307;28;20033;-74
2022/11/18 08:27:10;;;;;;;5.63;3.10;;;10.20;99.90;;;;;;5068999;28;20082;-74
2022/11/18 08:29:36;;;;;;;7.50;3.13;;;10.20;99.90;;;;;;5065851;28;20009;-75
2022/11/18 08:32:02;;;;;;;7.75;3.70;;;10.20;99.90;;;;;;5067900;28;20036;-74
2022/11/18 08:34:28;;;;;;;7.72;3.08;;;10.20;99.90;;;;;;5065714;28;20016;-74
2022/11/18 08:36:54;;;;;;;9.82;3.22;;;10.30;99.90;;;;;;5070519;28;20020;-74
2022/11/18 08:39:20;;;;;;;10.65;3.25;;;10.30;99.90;;;;;;5072821;28;20020;-74
2022/11/18 08:41:46;;;;;;;5.97;3.25;;;10.30;99.90;;;;;;5063766;28;20021;-74
2022/11/18 08:44:14;;;;;;;8.95;3.10;;;10.40;99.90;;;;;;5077257;28;20020;-75
2022/11/18 08:46:41;;;;;;;4.47;3.00;;;10.40;99.90;;;;;;5064764;28;20036;-74
2022/11/18 08:49:07;;;;;;;9.38;2.88;;;10.50;99.90;;;;;;5076519;28;20136;-77
2022/11/18 08:51:33;;;;;;;7.88;2.80;;;10.60;99.90;;;;;;5065022;28;20025;-74
2022/11/18 08:54:00;;;;;;;16.75;3.75;;;10.80;99.90;;;;;;5075466;28;20044;-73
2022/11/18 08:56:25;;;;;;;10.18;3.63;;;10.90;99.90;;;;;;5060408;28;20025;-73
2022/11/18 08:58:52;;;;;;;5.55;2.90;;;10.90;99.90;;;;;;5073894;28;20089;-74
2022/11/18 09:01:18;;;;;;;6.47;3.38;;;11.00;99.90;;;;;;5063424;28;20025;-73
2022/11/18 09:03:44;;;;;;;4.65;2.38;;;11.00;99.90;;;;;;5060858;28;20538;-73
2022/11/18 09:06:16;;;;;;;12.13;2.88;;;11.10;99.90;;;;;;5068143;28;20469;-73
2022/11/18 09:08:42;;;;;;;8.15;3.65;;;11.10;99.90;;;;;;5069101;28;20103;-73
2022/11/18 09:11:14;;;;;;;6.88;2.50;;;11.20;99.90;;;;;;5072686;28;20027;-74
2022/11/18 09:13:40;;;;;;;11.23;4.60;;;11.30;99.90;;;;;;5071059;28;20055;-75
2022/11/18 09:16:07;;;;;;;6.68;3.05;;;11.40;99.90;;;;;;5063550;28;20029;-74
2022/11/18 09:18:33;;;;;;;17.23;4.03;;;11.40;99.90;;;;;;5072557;28;20028;-73
2022/11/18 09:21:04;;;;;;;6.40;2.72;;;11.40;99.90;;;;;;5061956;28;20025;-73
2022/11/18 09:23:35;;;;;;;13.30;2.88;;;11.40;99.90;;;;;;5065812;28;20032;-74
2022/11/18 09:26:05;;;;;;;7.55;3.53;;;11.40;99.90;;;;;;5070563;28;20033;-74
2022/11/18 09:28:31;;;;;;;8.15;2.92;;;11.40;99.90;;;;;;5065451;28;20021;-76
2022/11/18 09:30:57;;;;;;;4.57;3.17;;;11.30;99.90;;;;;;5069919;28;20079;-75
2022/11/18 09:33:23;;;;;;;6.45;2.70;;;11.30;99.90;;;;;;5063184;28;20050;-74
2022/11/18 09:35:49;;;;;;;6.63;3.35;;;11.30;99.90;;;;;;5070704;28;20028;-75
2022/11/18 09:38:15;;;;;;;7.45;3.47;;;11.30;99.90;;;;;;5077409;28;20033;-75
2022/11/18 09:40:48;;;;;;;6.28;2.55;;;11.30;99.90;;;;;;5069859;28;20035;-75
2022/11/18 09:43:42;;;;;;;4.90;2.67;;;11.40;99.90;;;;;;5067037;28;20495;-75
2022/11/18 09:46:39;;;;;;;6.70;3.53;;;11.40;99.90;;;;;;5071196;28;20116;-75
2022/11/18 09:49:14;;;;;;;7.13;2.58;;;11.50;99.90;;;;;;5077528;28;20031;-75
2022/11/18 09:51:46;;;;;;;7.40;2.95;;;11.60;99.90;;;;;;5071976;28;20107;-76
2022/11/18 09:54:27;;;;;;;12.52;3.33;;;11.70;99.90;;;;;;5072647;28;20021;-75
2022/11/18 09:56:54;;;;;;;;;;;11.90;99.90;;;;;;5062103;28;20067;-76
2022/11/18 09:59:26;;;;;;;6.55;2.30;;;12.00;99.90;;;;;;5071836;28;19940;-76
2022/11/18 10:01:57;;;;;;;9.68;2.45;;;12.00;99.90;;;;;;5071006;28;20623;-76
2022/11/18 10:04:22;;;;;;;11.63;2.28;;;12.10;99.90;;;;;;5071216;28;20060;-76
2022/11/18 10:06:49;;;;;;;3.72;2.50;;;12.20;99.90;;;;;;5063361;28;20016;-76
2022/11/18 10:09:30;;;;;;;12.52;4.20;;;12.20;99.90;;;;;;5064793;28;20035;-76
2022/11/18 10:12:31;;;;;;;4.70;1.80;;;12.30;99.90;;;;;;5085951;28;20469;-76
2022/11/18 10:14:57;;;;;;;11.75;2.47;;;12.40;99.90;;;;;;5065966;28;20024;-76
2022/11/18 10:17:36;;;;;;;5.97;2.50;;;12.40;99.90;;;;;;5069240;28;20475;-74
2022/11/18 10:20:11;;;;;;;7.78;2.90;;;12.50;99.90;;;;;;5063649;28;20119;-75
2022/11/18 10:22:37;;;;;;;7.25;2.45;;;12.50;99.90;;;;;;5069976;28;20029;-76
2022/11/18 10:25:10;;;;;;;5.38;1.98;;;12.60;99.90;;;;;;5061422;28;20520;-75
2022/11/18 10:27:42;;;;;;;5.50;2.75;;;12.50;99.90;;;;;;5063179;28;20071;-76
2022/11/18 10:30:17;;;;;;;5.75;2.45;;;12.40;99.90;;;;;;5064324;28;20033;-76
2022/11/18 10:33:03;;;;;;;6.13;2.35;;;12.40;99.90;;;;;;5069454;28;20555;-76
2022/11/18 10:35:37;;;;;;;8.63;3.00;;;12.40;99.90;;;;;;5054047;28;20025;-77
2022/11/18 10:38:16;;;;;;;4.72;2.47;;;12.30;99.90;;;;;;5069358;28;20024;-76
2022/11/18 10:41:07;;;;;;;11.82;3.25;;;12.40;99.90;;;;;;5071253;28;20024;-76
2022/11/18 10:43:52;;;;;;;4.97;2.33;;;12.40;99.90;;;;;;5071161;28;20035;-76
2022/11/18 10:46:26;;;;;;;4.75;2.40;;;12.40;99.90;;;;;;5067835;28;20028;-76
2022/11/18 10:49:16;;;;;;;3.65;2.03;;;12.40;99.90;;;;;;5064074;28;20039;-77
2022/11/18 10:52:04;;;;;;;6.93;2.22;;;12.40;99.90;;;;;;5065889;28;20215;-79
2022/11/18 10:54:30;;;;;;;5.82;2.58;;;12.40;99.90;;;;;;5059948;28;20436;-78
2022/11/18 10:57:16;;;;;;;5.30;2.80;;;12.30;99.90;;;;;;5070209;28;20078;-78
2022/11/18 10:59:55;;;;;;;10.48;3.35;;;12.20;99.90;;;;;;5058087;28;20060;-78
2022/11/18 11:02:39;;;;;;;9.02;2.55;;;12.20;99.90;;;;;;5072309;28;20047;-78
2022/11/18 11:05:25;;;;;;;13.63;3.20;;;12.20;99.90;;;;;;5066196;28;20032;-79
2022/11/18 11:08:22;;;;;;;7.90;2.33;;;12.20;99.90;;;;;;5066244;28;20427;-81
2022/11/18 11:10:57;;;;;;;7.78;2.53;;;12.30;99.90;;;;;;5063721;28;20008;-77
2022/11/18 11:13:28;;;;;;;19.10;3.08;;;12.40;99.90;;;;;;5057122;28;20032;-78
2022/11/18 11:16:01;;;;;;;;;;;12.50;99.90;;;;;;5057913;28;20393;-78
2022/11/18 11:18:41;;;;;;;7.40;2.50;;;12.50;99.90;;;;;;5069057;28;19934;-78
2022/11/18 11:21:13;;;;;;;6.65;2.63;;;12.60;99.90;;;;;;5061416;28;20037;-80
2022/11/18 11:23:40;;;;;;;8.57;3.13;;;12.60;99.90;;;;;;5072408;28;20044;-78
2022/11/18 11:26:19;;;;;;;4.85;2.53;;;12.60;99.90;;;;;;5068066;28;20033;-78
2022/11/18 11:29:17;;;;;;;6.55;2.95;;;12.70;99.90;;;;;;5066205;28;20017;-78
2022/11/18 11:32:05;;;;;;;7.68;3.33;;;12.70;99.90;;;;;;5063113;28;20040;-78
2022/11/18 11:34:54;;;;;;;10.18;3.45;;;12.70;99.90;;;;;;5071186;28;20103;-79
2022/11/18 11:37:48;;;;;;;8.15;2.45;;;12.90;99.90;;;;;;5061357;28;20032;-80
2022/11/18 11:40:36;;;;;;;8.00;3.78;;;13.00;99.90;;;;;;5066202;28;20562;-78
2022/11/18 11:43:16;;;;;;;5.38;2.15;;;13.10;99.90;;;;;;5071495;28;20032;-79
2022/11/18 11:45:42;;;;;;;8.15;2.67;;;13.10;99.90;;;;;;5074309;28;20031;-79
2022/11/18 11:48:41;;;;;;;8.25;3.38;;;13.00;99.90;;;;;;5071670;28;20112;-78
2022/11/18 11:51:39;;;;;;;7.15;2.40;;;13.10;99.90;;;;;;5074157;28;20078;-79
2022/11/18 11:54:19;;;;;;;8.98;3.10;;;13.10;99.90;;;;;;5066515;28;20111;-79
2022/11/18 11:56:58;;;;;;;6.87;2.60;;;13.00;99.90;;;;;;5069599;28;20049;-81
2022/11/18 11:59:46;;;;;;;7.70;2.30;;;13.00;99.90;;;;;;5064218;28;20029;-82
2022/11/18 12:02:30;;;;;;;7.30;3.17;;;13.00;99.90;;;;;;5069030;28;20036;-79
2022/11/18 12:05:02;;;;;;;6.03;2.40;;;13.10;99.90;;;;;;5075065;28;20020;-80
2022/11/18 12:07:38;;;;;;;5.70;2.25;;;13.10;99.90;;;;;;5074668;28;20035;-79
2022/11/18 12:10:29;;;;;;;6.63;2.17;;;13.00;99.90;;;;;;5075982;28;20076;-79
2022/11/18 12:13:08;;;;;;;8.45;2.88;;;13.10;99.90;;;;;;5064599;28;20033;-79
2022/11/18 12:16:12;;;;;;;7.68;2.78;;;13.20;99.90;;;;;;5081198;28;20021;-78
2022/11/18 12:19:06;;;;;;;5.55;2.17;;;13.50;99.90;;;;;;5060738;28;20029;-80
2022/11/18 12:21:44;;;;;;;8.20;2.20;;;13.60;99.90;;;;;;5071518;28;20442;-79
2022/11/18 12:24:23;;;;;;;8.70;2.28;;;13.70;99.90;;;;;;5076175;28;20049;-82
2022/11/18 12:26:50;;;;;;;7.25;2.50;;;13.70;99.90;;;;;;5072663;28;20027;-79
2022/11/18 12:29:19;;;;;;;6.25;1.98;;;13.70;99.90;;;;;;5077150;28;20033;-78
2022/11/18 12:31:56;;;;;;;3.20;1.70;;;13.70;99.90;;;;;;5074618;28;20051;-78
2022/11/18 12:34:31;;;;;;;5.45;2.10;;;13.70;99.90;;;;;;5075959;28;20025;-81
2022/11/18 12:37:19;;;;;;;4.25;2.55;;;13.70;99.90;;;;;;5076866;28;20021;-79
2022/11/18 12:39:47;;;;;;;5.95;2.20;;;13.80;99.90;;;;;;5075323;28;20119;-79
2022/11/18 12:45:39;;;;;;;11.32;2.92;;;13.90;99.90;;;;;;5076386;28;20094;-79
2022/11/18 12:48:23;;;;;;;7.97;3.15;;;13.90;99.90;;;;;;5074204;28;20105;-79
2022/11/18 12:50:59;;;;;;;6.00;2.03;;;13.90;99.90;;;;;;5075343;28;20043;-78
2022/11/18 12:53:46;;;;;;;6.95;2.38;;;13.90;99.90;;;;;;5075081;28;20020;-79
2022/11/18 12:56:30;;;;;;;6.63;2.35;;;13.80;99.90;;;;;;5075094;28;20025;-79
2022/11/18 12:58:59;;;;;;;10.55;2.40;;;13.80;99.90;;;;;;5071407;28;20028;-79
2022/11/18 13:01:27;;;;;;;7.70;2.30;;;13.70;99.90;;;;;;5075265;28;20029;-79
2022/11/18 13:04:06;;;;;;;6.43;2.13;;;13.70;99.90;;;;;;5075456;28;20034;-79
2022/11/18 13:06:34;;;;;;;9.13;2.28;;;13.70;99.90;;;;;;5076375;28;20476;-80
2022/11/18 13:09:02;;;;;;;8.88;2.72;;;13.60;99.90;;;;;;5066267;28;20489;-79
2022/11/18 13:11:43;;;;;;;5.43;1.95;;;13.70;99.90;;;;;;5069703;28;20025;-79
2022/11/18 13:17:56;;;;;;;9.18;2.33;;;13.60;99.90;;;;;;5065250;28;20541;-82
2022/11/18 13:20:32;;;;;;;5.90;2.30;;;13.60;99.90;;;;;;5073008;28;20020;-78
2022/11/18 13:25:45;;;;;;;7.10;2.13;;;13.60;99.90;;;;;;5073539;28;20094;-79
2022/11/18 13:28:31;;;;;;;4.32;2.20;;;13.50;99.90;;;;;;5070808;28;20044;-77
2022/11/18 13:31:19;;;;;;;3.28;2.10;;;13.50;99.90;;;;;;5070439;28;20032;-79
2022/11/18 13:33:45;;;;;;;4.13;2.05;;;13.50;99.90;;;;;;5074161;28;20024;-80